createdAt,value
2019-02-09T00:00:37.076Z,2.35
2019-02-09T00:03:09.553Z,2.45
2019-02-09T00:05:40.737Z,2.02
2019-02-09T00:08:12.585Z,3.17
2019-02-09T00:10:44.413Z,2.10
2019-02-09T00:13:16.115Z,3.12
2019-02-09T00:15:47.493Z,2.15
2019-02-09T00:18:19.104Z,2.70
2019-02-09T00:20:50.318Z,2.72
2019-02-09T00:23:22.544Z,2.42
2019-02-09T00:25:54.434Z,3.08
2019-02-09T00:28:25.759Z,2.02
2019-02-09T00:30:57.345Z,2.92
2019-02-09T00:33:28.510Z,3.35
2019-02-09T00:35:59.701Z,3.47
2019-02-09T00:38:31.285Z,2.92
2019-02-09T00:41:03.262Z,3.08
2019-02-09T00:43:34.429Z,3.87
2019-02-09T00:46:06.146Z,2.27
2019-02-09T00:48:37.698Z,3.85
2019-02-09T00:51:09.253Z,1.37
2019-02-09T00:53:40.457Z,3.30
2019-02-09T00:56:11.735Z,3.83
2019-02-09T00:58:42.936Z,3.72
2019-02-09T01:01:14.206Z,3.33
2019-02-09T01:03:45.453Z,3.52
2019-02-09T01:06:17.740Z,3.60
2019-02-09T01:08:48.958Z,3.37
2019-02-09T01:11:20.189Z,3.22
2019-02-09T01:13:51.626Z,3.62
2019-02-09T01:16:23.155Z,3.00
2019-02-09T01:18:54.243Z,3.12
2019-02-09T01:21:25.434Z,3.75
2019-02-09T01:23:56.697Z,4.03
2019-02-09T01:26:28.222Z,3.85
2019-02-09T01:29:00.025Z,4.22
2019-02-09T01:31:31.294Z,2.45
2019-02-09T01:34:02.659Z,4.12
2019-02-09T01:36:34.025Z,2.83
2019-02-09T01:39:08.184Z,3.92
2019-02-09T01:41:39.646Z,3.60
2019-02-09T01:44:10.910Z,4.05
2019-02-09T01:46:42.095Z,2.40
2019-02-09T01:49:13.525Z,2.33
2019-02-09T01:51:44.899Z,3.77
2019-02-09T01:54:16.365Z,4.90
2019-02-09T01:56:47.753Z,4.30
2019-02-09T01:59:19.340Z,4.95
2019-02-09T02:01:50.890Z,4.03
2019-02-09T02:04:22.038Z,3.42
2019-02-09T02:06:53.572Z,4.03
2019-02-09T02:09:24.795Z,4.70
2019-02-09T02:11:56.197Z,4.22
2019-02-09T02:14:27.350Z,4.85
2019-02-09T02:16:58.631Z,4.53
2019-02-09T02:19:29.870Z,3.40
2019-02-09T02:22:01.139Z,2.10
2019-02-09T02:24:32.702Z,4.85
2019-02-09T02:27:04.210Z,4.55
2019-02-09T02:29:36.870Z,4.30
2019-02-09T02:32:08.511Z,4.87
2019-02-09T02:34:39.631Z,4.17
2019-02-09T02:37:11.054Z,4.72
2019-02-09T02:39:42.565Z,4.40
2019-02-09T02:42:13.815Z,3.80
2019-02-09T02:44:44.977Z,4.60
2019-02-09T02:47:16.306Z,4.42
2019-02-09T02:49:47.565Z,4.50
2019-02-09T02:52:19.062Z,3.85
2019-02-09T02:54:50.541Z,4.40
2019-02-09T02:57:21.839Z,4.28
2019-02-09T02:59:53.062Z,3.90
2019-02-09T03:02:24.612Z,4.70
2019-02-09T03:04:55.800Z,4.33
2019-02-09T03:07:27.624Z,3.80
2019-02-09T03:09:58.983Z,3.62
2019-02-09T03:12:30.533Z,4.25
2019-02-09T03:15:01.782Z,4.00
2019-02-09T03:17:34.079Z,5.00
2019-02-09T03:20:06.656Z,4.05
2019-02-09T03:22:37.799Z,4.90
2019-02-09T03:25:12.818Z,4.70
2019-02-09T03:27:44.148Z,3.65
2019-02-09T03:30:16.872Z,5.00
2019-02-09T03:32:48.149Z,4.92
2019-02-09T03:35:19.763Z,5.30
2019-02-09T03:37:51.019Z,4.53
2019-02-09T03:40:23.931Z,4.15
2019-02-09T03:42:55.305Z,4.00
2019-02-09T03:45:31.096Z,4.35
2019-02-09T03:48:03.537Z,4.87
2019-02-09T03:50:34.879Z,5.25
2019-02-09T03:53:06.347Z,4.85
2019-02-09T03:55:37.860Z,4.80
2019-02-09T03:58:09.567Z,4.78
2019-02-09T04:00:40.813Z,4.75
2019-02-09T04:03:12.450Z,5.20
2019-02-09T04:05:43.917Z,4.40
2019-02-09T04:08:15.398Z,4.87
2019-02-09T04:10:46.630Z,4.47
2019-02-09T04:13:17.881Z,5.10
2019-02-09T04:15:49.128Z,4.85
2019-02-09T04:18:20.384Z,4.80
2019-02-09T04:20:52.417Z,5.08
2019-02-09T04:23:23.766Z,4.12
2019-02-09T04:25:55.026Z,4.78
2019-02-09T04:28:26.279Z,5.15
2019-02-09T04:31:05.455Z,5.50
2019-02-09T04:33:30.343Z,5.37
2019-02-09T04:36:01.760Z,5.00
2019-02-09T04:38:32.799Z,4.95
2019-02-09T04:41:03.974Z,4.80
2019-02-09T04:43:35.273Z,5.28
2019-02-09T04:46:06.640Z,4.80
2019-02-09T04:48:37.685Z,4.95
2019-02-09T04:51:09.502Z,4.15
2019-02-09T04:53:40.682Z,3.10
2019-02-09T04:56:11.951Z,3.37
2019-02-09T04:58:43.346Z,3.98
2019-02-09T05:01:14.433Z,4.00
2019-02-09T05:03:45.698Z,3.58
2019-02-09T05:06:16.881Z,4.17
2019-02-09T05:08:48.144Z,4.80
2019-02-09T05:11:19.326Z,4.97
2019-02-09T05:13:50.993Z,4.08
2019-02-09T05:16:22.272Z,3.98
2019-02-09T05:18:53.544Z,4.60
2019-02-09T05:21:24.985Z,4.70
2019-02-09T05:23:56.219Z,5.00
2019-02-09T05:26:27.742Z,4.78
2019-02-09T05:28:58.967Z,2.15
2019-02-09T05:31:30.408Z,4.20
2019-02-09T05:34:01.606Z,3.60
2019-02-09T05:36:32.768Z,3.52
2019-02-09T05:39:05.610Z,3.70
2019-02-09T05:41:36.998Z,2.08
2019-02-09T05:44:08.259Z,2.37
2019-02-09T05:46:39.381Z,2.50
2019-02-09T05:49:10.901Z,1.92
2019-02-09T05:51:42.450Z,2.35
2019-02-09T05:54:13.569Z,2.30
2019-02-09T05:56:44.894Z,2.60
2019-02-09T05:59:15.946Z,2.60
2019-02-09T06:01:47.753Z,2.15
2019-02-09T06:04:19.294Z,2.17
2019-02-09T06:06:52.279Z,2.50
2019-02-09T06:09:23.830Z,2.20
2019-02-09T06:11:55.053Z,2.25
2019-02-09T06:14:26.898Z,2.52
2019-02-09T06:16:58.055Z,2.40
2019-02-09T06:19:29.241Z,2.05
2019-02-09T06:22:00.606Z,1.72
2019-02-09T06:24:31.872Z,2.50
2019-02-09T06:27:03.058Z,2.37
2019-02-09T06:29:34.614Z,2.42
2019-02-09T06:32:06.136Z,2.33
2019-02-09T06:34:37.717Z,2.42
2019-02-09T06:37:08.928Z,2.72
2019-02-09T06:39:40.122Z,2.40
2019-02-09T06:42:11.202Z,2.10
2019-02-09T06:44:42.314Z,2.42
2019-02-09T06:47:13.495Z,2.90
2019-02-09T06:49:44.623Z,2.47
2019-02-09T06:52:15.881Z,2.87
2019-02-09T06:54:47.130Z,1.17
2019-02-09T06:57:19.947Z,2.05
2019-02-09T06:59:51.556Z,2.55
2019-02-09T07:02:22.711Z,3.08
2019-02-09T07:04:55.015Z,2.17
2019-02-09T07:07:26.202Z,2.70
2019-02-09T07:09:57.491Z,2.95
2019-02-09T07:12:28.649Z,2.25
2019-02-09T07:14:59.839Z,2.67
2019-02-09T07:17:30.867Z,2.58
2019-02-09T07:20:06.401Z,2.47
2019-02-09T07:22:37.643Z,2.50
2019-02-09T07:25:12.027Z,1.87
2019-02-09T07:27:43.414Z,1.75
2019-02-09T07:30:19.074Z,2.60
2019-02-09T07:32:51.480Z,2.27
2019-02-09T07:35:22.957Z,2.67
2019-02-09T07:37:54.390Z,2.70
2019-02-09T07:40:25.886Z,3.08
2019-02-09T07:42:58.293Z,3.10
2019-02-09T07:45:29.696Z,2.60
2019-02-09T07:48:01.812Z,2.72
2019-02-09T07:50:33.075Z,2.70
2019-02-09T07:53:04.579Z,2.25
2019-02-09T07:55:36.203Z,2.72
2019-02-09T07:58:07.889Z,2.17
2019-02-09T08:00:39.389Z,2.30
2019-02-09T08:03:10.758Z,2.77
2019-02-09T08:05:42.035Z,2.72
2019-02-09T08:08:13.340Z,2.80
2019-02-09T08:10:44.607Z,4.58
2019-02-09T08:13:16.255Z,7.05
2019-02-09T08:15:48.628Z,3.20
2019-02-09T08:18:20.178Z,3.60
2019-02-09T08:20:51.838Z,3.50
2019-02-09T08:23:23.034Z,6.00
2019-02-09T08:25:54.298Z,3.27
2019-02-09T08:28:26.286Z,2.22
2019-02-09T08:30:57.846Z,2.60
2019-02-09T08:33:29.072Z,2.90
2019-02-09T08:36:00.625Z,2.10
2019-02-09T08:38:32.189Z,2.40
2019-02-09T08:41:03.718Z,1.90
2019-02-09T08:43:35.238Z,1.82
2019-02-09T08:46:06.647Z,1.90
2019-02-09T08:48:37.894Z,2.45
2019-02-09T08:51:12.809Z,1.90
2019-02-09T08:53:44.327Z,1.82
2019-02-09T08:56:15.612Z,2.22
2019-02-09T08:58:47.195Z,2.40
2019-02-09T09:01:18.480Z,2.42
2019-02-09T09:03:49.723Z,1.90
2019-02-09T09:06:20.976Z,1.80
2019-02-09T09:08:52.068Z,2.10
2019-02-09T09:11:23.699Z,1.20
2019-02-09T09:13:54.775Z,2.10
2019-02-09T09:16:26.058Z,1.98
2019-02-09T09:18:57.308Z,2.40
2019-02-09T09:21:28.594Z,1.90
2019-02-09T09:23:59.754Z,2.35
2019-02-09T09:26:31.279Z,1.80
2019-02-09T09:29:02.455Z,1.85
2019-02-09T09:31:33.726Z,1.37
2019-02-09T09:34:05.084Z,1.60
2019-02-09T09:36:36.299Z,2.25
2019-02-09T09:39:10.013Z,1.72
2019-02-09T09:41:41.713Z,2.30
2019-02-09T09:44:12.951Z,1.25
2019-02-09T09:46:44.226Z,1.98
2019-02-09T09:49:15.369Z,0.70
2019-02-09T09:51:46.688Z,1.32
2019-02-09T09:54:17.935Z,0.80
2019-02-09T09:56:49.231Z,1.00
2019-02-09T09:59:20.466Z,1.37
2019-02-09T10:01:51.763Z,1.20
2019-02-09T10:04:22.917Z,1.20
2019-02-09T10:06:54.271Z,0.80
2019-02-09T10:09:25.722Z,0.80
2019-02-09T10:11:56.941Z,0.90
2019-02-09T10:14:28.618Z,0.75
2019-02-09T10:17:00.173Z,0.80
2019-02-09T10:19:31.259Z,1.20
2019-02-09T10:22:02.473Z,0.90
2019-02-09T10:24:34.014Z,0.90
2019-02-09T10:27:05.326Z,1.20
2019-02-09T10:29:36.643Z,1.17
2019-02-09T10:32:08.258Z,1.00
2019-02-09T10:34:39.511Z,0.68
2019-02-09T10:37:11.154Z,1.15
2019-02-09T10:39:42.922Z,0.90
2019-02-09T10:42:14.222Z,0.62
2019-02-09T10:44:45.386Z,0.72
2019-02-09T10:47:16.683Z,1.00
2019-02-09T10:49:47.983Z,1.20
2019-02-09T10:52:19.272Z,0.50
2019-02-09T10:54:50.530Z,0.75
2019-02-09T10:57:22.863Z,1.10
2019-02-09T10:59:54.309Z,1.20
2019-02-09T11:02:25.557Z,1.20
2019-02-09T11:04:56.814Z,0.90
2019-02-09T11:07:28.153Z,1.20
2019-02-09T11:09:59.384Z,1.20
2019-02-09T11:12:30.953Z,1.35
2019-02-09T11:15:02.110Z,1.00
2019-02-09T11:17:33.462Z,1.20
2019-02-09T11:20:05.976Z,0.75
2019-02-09T11:22:37.683Z,0.68
2019-02-09T11:25:10.259Z,0.95
2019-02-09T11:27:42.351Z,1.02
2019-02-09T11:30:20.227Z,1.37
2019-02-09T11:33:00.508Z,0.88
2019-02-09T11:35:24.962Z,0.57
2019-02-09T11:37:56.252Z,0.95
2019-02-09T11:40:27.845Z,0.70
2019-02-09T11:42:59.402Z,1.20
2019-02-09T11:45:31.672Z,0.55
2019-02-09T11:48:03.184Z,0.93
2019-02-09T11:50:36.812Z,0.70
2019-02-09T11:53:08.109Z,1.00
2019-02-09T11:55:39.371Z,0.42
2019-02-09T11:58:11.949Z,0.37
2019-02-09T12:00:50.943Z,0.40
2019-02-09T12:03:22.526Z,0.60
2019-02-09T12:05:54.187Z,0.65
2019-02-09T12:08:25.401Z,0.80
2019-02-09T12:10:56.615Z,0.70
2019-02-09T12:13:27.861Z,0.72
2019-02-09T12:15:59.169Z,0.70
2019-02-09T12:18:30.344Z,0.90
2019-02-09T12:21:01.879Z,1.25
2019-02-09T12:23:33.041Z,0.88
2019-02-09T12:26:04.278Z,0.78
2019-02-09T12:28:35.658Z,0.70
2019-02-09T12:31:07.039Z,0.95
2019-02-09T12:33:38.294Z,1.00
2019-02-09T12:36:09.618Z,0.42
2019-02-09T12:38:40.903Z,0.78
2019-02-09T12:41:12.170Z,0.65
2019-02-09T12:43:43.327Z,1.02
2019-02-09T12:46:14.623Z,0.90
2019-02-09T12:48:45.866Z,1.47
2019-02-09T12:51:17.165Z,0.85
2019-02-09T12:53:48.359Z,1.10
2019-02-09T12:56:20.012Z,1.17
2019-02-09T12:58:51.258Z,0.90
2019-02-09T13:01:22.577Z,1.22
2019-02-09T13:03:53.806Z,1.17
2019-02-09T13:06:25.401Z,1.20
2019-02-09T13:08:56.570Z,1.00
2019-02-09T13:11:27.795Z,1.00
2019-02-09T13:13:58.927Z,0.78
2019-02-09T13:16:30.492Z,0.90
2019-02-09T13:19:01.784Z,0.90
2019-02-09T13:21:33.112Z,0.90
2019-02-09T13:24:04.694Z,1.02
2019-02-09T13:26:36.124Z,0.80
2019-02-09T13:29:07.734Z,1.10
2019-02-09T13:31:39.486Z,0.80
2019-02-09T13:34:10.782Z,0.90
2019-02-09T13:36:42.190Z,1.12
2019-02-09T13:39:13.766Z,0.80
2019-02-09T13:41:45.598Z,1.00
2019-02-09T13:44:16.937Z,1.57
2019-02-09T13:46:48.178Z,1.10
2019-02-09T13:49:19.747Z,0.80
2019-02-09T13:51:51.118Z,1.02
2019-02-09T13:54:22.278Z,1.07
2019-02-09T13:56:53.505Z,1.10
2019-02-09T13:59:25.157Z,1.50
2019-02-09T14:01:56.394Z,1.37
2019-02-09T14:04:28.489Z,1.45
2019-02-09T14:06:59.738Z,1.20
2019-02-09T14:09:31.894Z,1.37
2019-02-09T14:12:03.242Z,1.45
2019-02-09T14:14:34.834Z,1.05
2019-02-09T14:17:06.376Z,1.40
2019-02-09T14:19:37.961Z,1.05
2019-02-09T14:22:09.515Z,1.37
2019-02-09T14:24:40.737Z,1.20
2019-02-09T14:27:12.318Z,1.60
2019-02-09T14:29:43.875Z,1.12
2019-02-09T14:32:15.132Z,0.80
2019-02-09T14:34:46.431Z,1.20
2019-02-09T14:37:17.692Z,1.12
2019-02-09T14:39:49.393Z,1.47
2019-02-09T14:42:20.565Z,0.93
2019-02-09T14:44:51.790Z,1.07
2019-02-09T14:47:22.879Z,1.25
2019-02-09T14:49:54.127Z,1.10
2019-02-09T14:52:26.400Z,1.60
2019-02-09T14:54:57.611Z,1.12
2019-02-09T14:57:28.777Z,1.15
2019-02-09T14:59:59.921Z,1.20
2019-02-09T15:02:31.163Z,0.78
2019-02-09T15:05:02.355Z,1.10
2019-02-09T15:07:33.985Z,0.90
2019-02-09T15:10:06.930Z,1.00
2019-02-09T15:12:37.938Z,1.05
2019-02-09T15:15:15.643Z,1.25
2019-02-09T15:17:46.805Z,0.95
2019-02-09T15:20:21.608Z,1.12
2019-02-09T15:22:52.859Z,0.75
2019-02-09T15:25:24.271Z,0.80
2019-02-09T15:27:55.467Z,1.37
2019-02-09T15:30:29.126Z,0.90
2019-02-09T15:33:00.294Z,0.70
2019-02-09T15:35:31.506Z,1.25
2019-02-09T15:38:02.754Z,1.25
2019-02-09T15:40:34.035Z,1.57
2019-02-09T15:43:05.482Z,0.98
2019-02-09T15:45:36.817Z,1.27
2019-02-09T15:48:08.199Z,2.60
2019-02-09T15:50:39.493Z,1.70
2019-02-09T15:53:11.345Z,1.22
2019-02-09T15:55:42.559Z,1.65
2019-02-09T15:58:14.105Z,1.95
2019-02-09T16:00:45.390Z,1.37
2019-02-09T16:03:16.944Z,1.50
2019-02-09T16:05:48.533Z,2.20
2019-02-09T16:08:19.708Z,1.60
2019-02-09T16:10:50.939Z,1.60
2019-02-09T16:13:22.142Z,2.10
2019-02-09T16:15:53.431Z,2.15
2019-02-09T16:18:24.603Z,1.75
2019-02-09T16:20:56.382Z,1.55
2019-02-09T16:23:27.544Z,1.50
2019-02-09T16:25:58.806Z,1.52
2019-02-09T16:28:30.123Z,1.32
2019-02-09T16:31:02.377Z,1.60
2019-02-09T16:33:33.541Z,1.40
2019-02-09T16:36:05.413Z,1.60
2019-02-09T16:38:36.650Z,1.80
2019-02-09T16:41:08.001Z,2.40
2019-02-09T16:43:39.225Z,1.98
2019-02-09T16:46:11.229Z,1.55
2019-02-09T16:48:42.563Z,1.55
2019-02-09T16:51:13.859Z,1.50
2019-02-09T16:53:45.113Z,1.60
2019-02-09T16:56:16.607Z,1.22
2019-02-09T16:58:47.799Z,2.17
2019-02-09T17:01:19.021Z,1.60
2019-02-09T17:03:50.259Z,1.70
2019-02-09T17:06:23.132Z,1.60
2019-02-09T17:08:54.478Z,1.60
2019-02-09T17:11:26.198Z,1.95
2019-02-09T17:13:57.446Z,1.80
2019-02-09T17:16:28.895Z,1.35
2019-02-09T17:19:00.147Z,1.45
2019-02-09T17:21:32.617Z,0.85
2019-02-09T17:24:03.862Z,1.30
2019-02-09T17:26:35.482Z,1.30
2019-02-09T17:29:06.837Z,2.75
2019-02-09T17:31:38.132Z,1.60
2019-02-09T17:34:09.358Z,1.72
2019-02-09T17:36:42.098Z,1.05
2019-02-09T17:39:13.558Z,1.25
2019-02-09T17:41:44.874Z,1.17
2019-02-09T17:44:16.110Z,1.40
2019-02-09T17:46:47.372Z,1.22
2019-02-09T17:49:18.539Z,1.40
2019-02-09T17:51:49.760Z,1.60
2019-02-09T17:54:21.331Z,1.42
2019-02-09T17:56:52.987Z,1.65
2019-02-09T17:59:24.168Z,1.77
2019-02-09T18:01:55.732Z,1.67
2019-02-09T18:04:26.963Z,1.40
2019-02-09T18:06:58.281Z,1.95
2019-02-09T18:09:29.442Z,1.52
2019-02-09T18:12:01.042Z,1.42
2019-02-09T18:14:32.618Z,1.40
2019-02-09T18:17:04.457Z,1.45
2019-02-09T18:19:35.935Z,1.42
2019-02-09T18:22:07.244Z,1.55
2019-02-09T18:24:39.564Z,2.22
2019-02-09T18:27:11.126Z,1.35
2019-02-09T18:29:42.552Z,1.90
2019-02-09T18:32:13.855Z,1.60
2019-02-09T18:34:45.085Z,1.92
2019-02-09T18:37:16.421Z,1.37
2019-02-09T18:39:47.427Z,1.20
2019-02-09T18:42:18.667Z,1.60
2019-02-09T18:44:50.167Z,1.75
2019-02-09T18:47:21.682Z,1.85
2019-02-09T18:49:52.939Z,1.80
2019-02-09T18:52:24.683Z,0.90
2019-02-09T18:54:55.926Z,1.50
2019-02-09T18:57:27.220Z,1.35
2019-02-09T18:59:58.305Z,1.32
2019-02-09T19:02:29.698Z,1.60
2019-02-09T19:05:04.358Z,1.82
2019-02-09T19:07:35.837Z,1.42
2019-02-09T19:10:10.971Z,1.27
2019-02-09T19:12:42.578Z,1.67
2019-02-09T19:15:14.763Z,0.45
2019-02-09T19:17:46.106Z,1.98
2019-02-09T19:20:21.404Z,1.95
2019-02-09T19:22:53.246Z,1.30
2019-02-09T19:25:24.921Z,1.65
2019-02-09T19:27:56.220Z,1.47
2019-02-09T19:30:27.522Z,1.67
2019-02-09T19:32:58.922Z,1.32
2019-02-09T19:35:30.166Z,1.60
2019-02-09T19:38:01.399Z,1.55
2019-02-09T19:40:32.817Z,1.80
2019-02-09T19:43:04.738Z,1.30
2019-02-09T19:45:36.010Z,1.20
2019-02-09T19:48:07.651Z,1.32
2019-02-09T19:50:39.206Z,0.90
2019-02-09T19:53:10.522Z,1.42
2019-02-09T19:55:41.766Z,1.37
2019-02-09T19:58:13.056Z,1.55
2019-02-09T20:00:45.470Z,1.70
2019-02-09T20:03:17.758Z,1.40
2019-02-09T20:05:49.958Z,1.50
2019-02-09T20:08:21.283Z,1.60
2019-02-09T20:10:52.389Z,1.82
2019-02-09T20:13:23.698Z,1.40
2019-02-09T20:15:54.932Z,1.30
2019-02-09T20:18:26.474Z,2.10
2019-02-09T20:20:57.641Z,1.72
2019-02-09T20:23:28.893Z,1.27
2019-02-09T20:26:00.126Z,1.75
2019-02-09T20:28:31.426Z,1.50
2019-02-09T20:31:02.706Z,1.87
2019-02-09T20:33:33.996Z,1.42
2019-02-09T20:36:05.157Z,1.45
2019-02-09T20:38:36.498Z,1.95
2019-02-09T20:41:09.771Z,1.10
2019-02-09T20:43:40.880Z,1.67
2019-02-09T20:46:12.472Z,1.40
2019-02-09T20:48:43.968Z,1.47
2019-02-09T20:51:15.205Z,1.20
2019-02-09T20:53:46.676Z,1.60
2019-02-09T20:56:17.759Z,1.20
2019-02-09T20:58:49.049Z,1.30
2019-02-09T21:01:20.223Z,1.75
2019-02-09T21:03:51.443Z,1.70
2019-02-09T21:06:22.940Z,1.50
2019-02-09T21:08:54.269Z,1.70
2019-02-09T21:11:25.492Z,1.32
2019-02-09T21:13:56.701Z,1.55
2019-02-09T21:16:27.870Z,1.35
2019-02-09T21:18:59.085Z,1.67
2019-02-09T21:21:30.314Z,1.17
2019-02-09T21:24:01.636Z,1.37
2019-02-09T21:26:33.039Z,1.35
2019-02-09T21:29:04.730Z,1.62
2019-02-09T21:31:36.358Z,1.57
2019-02-09T21:34:07.918Z,2.00
2019-02-09T21:36:39.074Z,2.05
2019-02-09T21:39:11.174Z,1.70
2019-02-09T21:41:42.277Z,1.67
2019-02-09T21:44:13.564Z,1.62
2019-02-09T21:46:44.671Z,1.72
2019-02-09T21:49:15.977Z,1.30
2019-02-09T21:51:47.166Z,1.55
2019-02-09T21:54:18.465Z,1.95
2019-02-09T21:56:50.026Z,1.32
2019-02-09T21:59:21.244Z,1.75
2019-02-09T22:01:52.411Z,1.52
2019-02-09T22:04:23.549Z,1.62
2019-02-09T22:06:55.151Z,1.70
2019-02-09T22:09:26.847Z,1.32
2019-02-09T22:11:58.168Z,1.57
2019-02-09T22:14:29.327Z,2.05
2019-02-09T22:17:00.457Z,1.25
2019-02-09T22:19:31.625Z,1.20
2019-02-09T22:22:03.171Z,1.70
2019-02-09T22:24:34.884Z,1.30
2019-02-09T22:27:06.560Z,1.75
2019-02-09T22:29:37.842Z,1.60
2019-02-09T22:32:09.139Z,1.40
2019-02-09T22:34:40.301Z,1.20
2019-02-09T22:37:11.642Z,1.30
2019-02-09T22:39:42.822Z,1.95
2019-02-09T22:42:14.336Z,2.37
2019-02-09T22:44:45.918Z,1.75
2019-02-09T22:47:17.427Z,1.80
2019-02-09T22:49:48.872Z,1.77
2019-02-09T22:52:20.150Z,1.45
2019-02-09T22:54:51.926Z,1.72
2019-02-09T22:57:23.042Z,1.45
2019-02-09T22:59:54.216Z,2.70
2019-02-09T23:02:25.490Z,1.40
2019-02-09T23:05:11.443Z,1.87
2019-02-09T23:07:43.322Z,1.85
2019-02-09T23:10:15.619Z,1.65
2019-02-09T23:12:48.592Z,1.65
2019-02-09T23:15:21.499Z,1.57
2019-02-09T23:17:52.711Z,1.35
2019-02-09T23:20:24.111Z,1.70
2019-02-09T23:22:59.524Z,1.75
2019-02-09T23:25:33.576Z,1.80
2019-02-09T23:28:04.973Z,1.70
2019-02-09T23:30:36.309Z,1.42
2019-02-09T23:33:07.656Z,1.60
2019-02-09T23:35:39.209Z,1.87
2019-02-09T23:38:10.484Z,1.87
2019-02-09T23:40:42.094Z,1.40
2019-02-09T23:43:13.178Z,2.12
2019-02-09T23:45:44.860Z,2.10
2019-02-09T23:48:16.243Z,2.00
2019-02-09T23:50:47.446Z,1.70
2019-02-09T23:53:18.470Z,1.40
2019-02-09T23:55:49.981Z,2.00
2019-02-09T23:58:21.526Z,2.05
